Shonkin, Montana
Current Conditions -  °F | °C
As of 5:56 AM on Friday 28 Nov 2014 (Local Time) from KGFA Reporting Station
Clear Clear  
Wind Chill: 42°   Ceiling: Unl
Heat Index: 49°   Visibility: 10mi
Dew Point: 34°   Wind: 23mph
Humidity: 56%   Direction: 240°WSW
Pressure: 29.55"   Gusts: 29mph
Location:  47.5922°N, 110.795°W
Report Text: KGFA 281256Z AUTO 24020G25KT 10SM CLR 10/01 A2955 RMK AO2 SLP013 T00970012
Loading
Personal Weather Stations






























Interactive Weather Map New forecast layout! Learn more

10-Day Weather Forecast

Advertisements
Track Severe Weather on mobile